Adelphia, New Jersey
Current Conditions -  °F | °C
As of 1:15 AM on Sunday 26 Oct 2014 (Local Time) from KBLM Reporting Station
Few Clouds Few Clouds  
Wind Chill: 57°   Ceiling: Unl
Heat Index: 57°   Visibility: 10mi
Dew Point: 41°   Wind: 9mph
Humidity: 55%   Direction: 230°SW
Pressure: 29.58"   Gusts: NA
Location:  40.22°N, 74.26°W
Report Text: KBLM 260515Z AUTO 23008KT 10SM FEW070 14/05 A2958 RMK AO1
Loading
Personal Weather Stations






























Interactive Weather Map
Tropical Storm Tracking
New forecast layout! Learn more

10-Day Weather Forecast

Advertisements
Track Severe Weather on mobile